createdAt,value
2017-10-10T00:00:16.944Z,85.60
2017-10-10T00:02:44.472Z,85.40
2017-10-10T00:05:12.022Z,85.70
2017-10-10T00:07:39.787Z,85.60
2017-10-10T00:10:07.319Z,85.60
2017-10-10T00:12:34.912Z,85.60
2017-10-10T00:15:02.446Z,85.70
2017-10-10T00:17:29.971Z,85.70
2017-10-10T00:19:58.291Z,86.20
2017-10-10T00:22:25.839Z,85.60
2017-10-10T00:24:53.371Z,85.50
2017-10-10T00:27:21.695Z,85.60
2017-10-10T00:29:49.219Z,85.60
2017-10-10T00:32:17.524Z,85.50
2017-10-10T00:34:45.150Z,85.50
2017-10-10T00:37:14.357Z,84.90
2017-10-10T00:39:41.887Z,85.00
2017-10-10T00:42:09.435Z,85.00
2017-10-10T00:44:36.968Z,85.10
2017-10-10T00:47:04.491Z,84.60
2017-10-10T00:49:32.040Z,84.90
2017-10-10T00:51:59.568Z,85.00
2017-10-10T00:54:27.087Z,84.30
2017-10-10T00:56:54.672Z,84.50
2017-10-10T00:59:22.202Z,84.20
2017-10-10T01:01:49.731Z,84.00
2017-10-10T01:04:17.295Z,84.00
2017-10-10T01:06:44.820Z,84.00
2017-10-10T01:09:12.557Z,83.60
2017-10-10T01:11:40.108Z,83.70
2017-10-10T01:14:07.631Z,84.00
2017-10-10T01:16:35.154Z,83.50
2017-10-10T01:19:02.730Z,83.30
2017-10-10T01:21:30.252Z,83.30
2017-10-10T01:23:57.776Z,83.50
2017-10-10T01:26:26.090Z,83.40
2017-10-10T01:28:53.608Z,83.20
2017-10-10T01:31:21.132Z,83.50
2017-10-10T01:33:48.680Z,83.60
2017-10-10T01:36:17.144Z,83.40
2017-10-10T01:38:44.673Z,83.40
2017-10-10T01:41:13.936Z,83.30
2017-10-10T01:43:41.479Z,83.30
2017-10-10T01:46:09.008Z,83.00
2017-10-10T01:48:36.575Z,82.60
2017-10-10T01:51:04.090Z,82.60
2017-10-10T01:53:31.615Z,82.50
2017-10-10T01:55:59.169Z,82.60
2017-10-10T01:58:26.692Z,82.60
2017-10-10T02:00:54.215Z,82.60
2017-10-10T02:03:21.793Z,82.60
2017-10-10T02:05:49.328Z,82.70
2017-10-10T02:08:16.851Z,82.50
2017-10-10T02:10:44.779Z,82.60
2017-10-10T02:13:12.307Z,82.50
2017-10-10T02:15:39.827Z,82.50
2017-10-10T02:18:08.148Z,82.40
2017-10-10T02:20:35.670Z,82.40
2017-10-10T02:23:03.960Z,83.00
2017-10-10T02:25:31.560Z,83.00
2017-10-10T02:27:59.088Z,83.20
2017-10-10T02:30:26.603Z,83.20
2017-10-10T02:32:54.153Z,83.40
2017-10-10T02:35:21.684Z,83.40
2017-10-10T02:37:49.211Z,83.40
2017-10-10T02:40:16.768Z,83.40
2017-10-10T02:42:44.291Z,83.40
2017-10-10T02:45:11.810Z,83.80
2017-10-10T02:47:39.400Z,83.60
2017-10-10T02:50:06.937Z,84.00
2017-10-10T02:52:34.476Z,83.80
2017-10-10T02:55:02.033Z,83.80
2017-10-10T02:57:29.559Z,83.80
2017-10-10T02:59:57.095Z,83.70
2017-10-10T03:02:24.644Z,83.60
2017-10-10T03:04:52.168Z,83.50
2017-10-10T03:07:19.696Z,83.70
2017-10-10T03:09:47.283Z,84.00
2017-10-10T03:12:17.588Z,84.50
2017-10-10T03:14:45.892Z,84.30
2017-10-10T03:17:14.647Z,84.30
2017-10-10T03:19:42.952Z,84.80
2017-10-10T03:22:10.484Z,84.80
2017-10-10T03:24:38.810Z,85.00
2017-10-10T03:27:06.343Z,85.20
2017-10-10T03:29:33.883Z,85.50
2017-10-10T03:32:01.487Z,85.60
2017-10-10T03:34:29.012Z,85.80
2017-10-10T03:36:57.303Z,85.20
2017-10-10T03:39:24.851Z,85.20
2017-10-10T03:41:53.139Z,85.70
2017-10-10T03:44:20.663Z,85.60
2017-10-10T03:46:48.215Z,85.90
2017-10-10T03:49:16.471Z,86.70
2017-10-10T03:51:43.997Z,86.20
2017-10-10T03:54:11.569Z,86.20
2017-10-10T03:56:39.088Z,86.50
2017-10-10T03:59:06.615Z,86.10
2017-10-10T04:01:34.158Z,86.10
2017-10-10T04:04:01.683Z,86.20
2017-10-10T04:06:29.975Z,86.00
2017-10-10T04:08:57.532Z,86.00
2017-10-10T04:11:25.068Z,86.10
2017-10-10T04:13:53.003Z,85.90
2017-10-10T04:16:20.579Z,86.30
2017-10-10T04:18:48.111Z,86.40
2017-10-10T04:21:16.383Z,86.60
2017-10-10T04:23:43.928Z,86.20
2017-10-10T04:26:11.448Z,86.40
2017-10-10T04:28:39.737Z,86.10
2017-10-10T04:31:07.288Z,85.90
2017-10-10T04:33:35.583Z,86.10
2017-10-10T04:36:03.115Z,86.00
2017-10-10T04:38:31.347Z,86.20
2017-10-10T04:40:58.984Z,86.20
2017-10-10T04:43:26.513Z,86.30
2017-10-10T04:45:54.073Z,86.20
2017-10-10T04:48:21.591Z,86.10
2017-10-10T04:50:49.124Z,86.50
2017-10-10T04:53:16.686Z,86.50
2017-10-10T04:55:44.216Z,86.10
2017-10-10T04:58:11.739Z,86.20
2017-10-10T05:00:39.309Z,86.60
2017-10-10T05:03:06.831Z,86.40
2017-10-10T05:05:34.359Z,86.10
2017-10-10T05:08:02.684Z,86.30
2017-10-10T05:10:30.212Z,86.30
2017-10-10T05:12:57.730Z,86.50
2017-10-10T05:15:25.743Z,86.80
2017-10-10T05:17:53.271Z,86.90
2017-10-10T05:20:20.796Z,86.60
2017-10-10T05:22:48.372Z,86.80
2017-10-10T05:25:16.408Z,86.70
2017-10-10T05:27:43.927Z,86.50
2017-10-10T05:30:11.488Z,86.70
2017-10-10T05:32:39.800Z,86.60
2017-10-10T05:35:07.323Z,86.50
2017-10-10T05:37:35.651Z,86.80
2017-10-10T05:40:03.176Z,86.80
2017-10-10T05:42:31.472Z,86.50
2017-10-10T05:45:00.114Z,86.70
2017-10-10T05:47:27.647Z,86.70
2017-10-10T05:49:55.185Z,86.40
2017-10-10T05:52:22.731Z,86.20
2017-10-10T05:54:50.259Z,86.40
2017-10-10T05:57:17.782Z,86.30
2017-10-10T05:59:45.340Z,86.20
2017-10-10T06:02:14.583Z,86.00
2017-10-10T06:04:42.148Z,86.10
2017-10-10T06:07:09.751Z,86.20
2017-10-10T06:09:38.047Z,85.70
2017-10-10T06:12:05.587Z,85.70
2017-10-10T06:14:33.148Z,85.80
2017-10-10T06:17:01.080Z,85.70
2017-10-10T06:19:28.611Z,85.50
2017-10-10T06:21:56.160Z,85.50
2017-10-10T06:24:23.688Z,85.80
2017-10-10T06:26:51.221Z,85.80
2017-10-10T06:29:18.791Z,86.20
2017-10-10T06:31:46.335Z,86.10
2017-10-10T06:34:16.260Z,86.20
2017-10-10T06:36:43.807Z,86.20
2017-10-10T06:39:11.331Z,86.20
2017-10-10T06:41:38.856Z,86.30
2017-10-10T06:44:06.416Z,85.80
2017-10-10T06:46:33.946Z,84.10
2017-10-10T06:49:01.480Z,83.30
2017-10-10T06:51:29.081Z,83.40
2017-10-10T06:53:56.615Z,83.30
2017-10-10T06:56:24.924Z,83.20
2017-10-10T06:58:52.479Z,83.10
2017-10-10T07:01:20.007Z,82.40
2017-10-10T07:03:48.315Z,81.50
2017-10-10T07:06:17.243Z,81.10
2017-10-10T07:08:44.778Z,81.00
2017-10-10T07:11:12.307Z,81.00
2017-10-10T07:13:40.660Z,79.90
2017-10-10T07:16:08.195Z,79.80
2017-10-10T07:18:36.117Z,79.60
2017-10-10T07:21:03.676Z,79.10
2017-10-10T07:23:31.975Z,79.40
2017-10-10T07:25:59.498Z,79.30
2017-10-10T07:28:27.060Z,79.00
2017-10-10T07:30:54.591Z,75.10
2017-10-10T07:33:22.112Z,73.40
2017-10-10T07:35:49.709Z,73.10
2017-10-10T07:38:17.235Z,72.40
2017-10-10T07:40:44.783Z,73.70
2017-10-10T07:43:12.349Z,75.00
2017-10-10T07:45:39.892Z,74.90
2017-10-10T07:48:07.427Z,75.50
2017-10-10T07:50:34.983Z,76.50
2017-10-10T07:53:02.511Z,76.40
2017-10-10T07:55:30.039Z,75.30
2017-10-10T07:57:57.632Z,71.20
2017-10-10T08:00:25.164Z,63.50
2017-10-10T08:02:52.697Z,62.70
2017-10-10T08:05:20.265Z,59.10
2017-10-10T08:07:47.804Z,58.30
2017-10-10T08:10:17.239Z,59.10
2017-10-10T08:12:45.564Z,60.90
2017-10-10T08:15:14.603Z,60.90
2017-10-10T08:17:42.140Z,61.90
2017-10-10T08:20:10.254Z,61.90
2017-10-10T08:22:37.803Z,64.10
2017-10-10T08:25:11.708Z,65.70
2017-10-10T08:27:40.980Z,65.60
2017-10-10T08:30:08.527Z,66.30
2017-10-10T08:32:36.226Z,65.40
2017-10-10T08:35:04.616Z,64.70
2017-10-10T08:37:32.175Z,64.50
2017-10-10T08:39:59.707Z,61.60
2017-10-10T08:42:27.300Z,62.20
2017-10-10T08:44:54.846Z,60.90
2017-10-10T08:47:22.395Z,59.10
2017-10-10T08:49:50.195Z,58.70
2017-10-10T08:52:17.728Z,56.70
2017-10-10T08:54:46.019Z,54.70
2017-10-10T08:57:14.574Z,54.70
2017-10-10T08:59:42.103Z,56.40
2017-10-10T09:02:09.636Z,55.50
2017-10-10T09:04:37.562Z,53.60
2017-10-10T09:07:05.268Z,52.20
2017-10-10T09:09:32.824Z,50.60
2017-10-10T09:12:00.392Z,50.70
2017-10-10T09:14:27.990Z,51.40
2017-10-10T09:16:55.627Z,50.60
2017-10-10T09:19:23.178Z,51.20
2017-10-10T09:21:51.500Z,50.90
2017-10-10T09:24:19.128Z,49.10
2017-10-10T09:26:46.740Z,48.90
2017-10-10T09:29:16.255Z,49.50
2017-10-10T09:31:43.779Z,49.50
2017-10-10T09:34:11.331Z,52.50
2017-10-10T09:36:38.867Z,52.80
2017-10-10T09:39:06.400Z,53.90
2017-10-10T09:41:33.967Z,53.10
2017-10-10T09:44:01.495Z,53.50
2017-10-10T09:46:29.024Z,53.70
2017-10-10T09:48:56.604Z,53.00
2017-10-10T09:51:24.933Z,52.50
2017-10-10T09:53:52.503Z,52.40
2017-10-10T09:56:20.089Z,52.30
2017-10-10T09:58:47.615Z,53.00
2017-10-10T10:01:16.388Z,52.50
2017-10-10T10:03:43.939Z,54.10
2017-10-10T10:06:11.468Z,54.70
2017-10-10T10:08:38.995Z,54.40
2017-10-10T10:11:06.579Z,55.40
2017-10-10T10:13:34.107Z,54.60
2017-10-10T10:16:01.647Z,54.80
2017-10-10T10:18:29.215Z,55.50
2017-10-10T10:20:56.750Z,56.40
2017-10-10T10:23:25.488Z,55.50
2017-10-10T10:25:53.047Z,55.50
2017-10-10T10:28:20.574Z,56.20
2017-10-10T10:30:48.101Z,56.20
2017-10-10T10:33:16.525Z,57.00
2017-10-10T10:35:44.047Z,56.70
2017-10-10T10:38:12.345Z,55.90
2017-10-10T10:40:39.907Z,55.80
2017-10-10T10:46:04.459Z,55.90
2017-10-10T10:48:31.992Z,57.00
2017-10-10T10:50:59.523Z,56.40
2017-10-10T10:53:27.433Z,55.80
2017-10-10T10:55:54.981Z,55.80
2017-10-10T10:58:22.528Z,55.90
2017-10-10T11:00:50.123Z,56.10
2017-10-10T11:03:17.661Z,57.00
2017-10-10T11:05:45.200Z,57.20
2017-10-10T11:08:13.798Z,56.40
2017-10-10T11:10:41.335Z,57.10
2017-10-10T11:13:08.870Z,57.90
2017-10-10T11:15:36.465Z,57.50
2017-10-10T11:18:04.148Z,57.30
2017-10-10T11:20:32.459Z,56.20
2017-10-10T11:23:00.031Z,56.20
2017-10-10T11:25:28.815Z,57.60
2017-10-10T11:27:56.586Z,57.60
2017-10-10T11:30:24.148Z,56.50
2017-10-10T11:32:51.679Z,56.90
2017-10-10T11:35:19.215Z,57.00
2017-10-10T11:37:46.791Z,56.90
2017-10-10T11:40:15.499Z,57.60
2017-10-10T11:42:43.032Z,57.80
2017-10-10T11:45:10.744Z,57.80
2017-10-10T11:47:38.295Z,58.60
2017-10-10T11:50:06.600Z,58.40
2017-10-10T11:52:34.174Z,58.40
2017-10-10T11:55:01.711Z,58.20
2017-10-10T11:57:29.235Z,58.40
2017-10-10T11:59:56.828Z,57.80
2017-10-10T12:02:24.374Z,57.70
2017-10-10T12:04:51.904Z,57.50
2017-10-10T12:07:19.475Z,57.80
2017-10-10T12:09:47.007Z,58.70
2017-10-10T12:12:26.739Z,58.90
2017-10-10T12:22:04.336Z,58.90
2017-10-10T12:24:32.702Z,61.50
2017-10-10T12:27:00.590Z,59.60
2017-10-10T12:29:28.143Z,58.90
2017-10-10T12:31:56.448Z,60.00
2017-10-10T12:34:24.032Z,60.00
2017-10-10T12:36:51.606Z,58.20
2017-10-10T12:39:19.152Z,57.10
2017-10-10T12:41:46.697Z,57.40
2017-10-10T12:44:16.395Z,57.00
2017-10-10T12:46:43.983Z,57.00
2017-10-10T12:49:11.544Z,57.00
2017-10-10T12:51:39.124Z,57.70
2017-10-10T12:54:06.680Z,58.60
2017-10-10T12:56:34.398Z,58.30
2017-10-10T12:59:01.973Z,59.00
2017-10-10T13:01:29.516Z,58.30
2017-10-10T13:03:57.064Z,58.60
2017-10-10T13:06:25.459Z,59.40
2017-10-10T13:08:52.995Z,59.30
2017-10-10T13:11:21.302Z,58.90
2017-10-10T13:13:48.863Z,58.80
2017-10-10T13:16:16.468Z,59.40
2017-10-10T13:18:44.003Z,59.40
2017-10-10T13:21:12.326Z,59.70
2017-10-10T13:23:39.899Z,59.70
2017-10-10T13:26:07.472Z,59.60
2017-10-10T13:28:36.000Z,59.70
2017-10-10T13:31:03.542Z,60.50
2017-10-10T13:33:31.075Z,59.90
2017-10-10T13:35:58.642Z,60.50
2017-10-10T13:38:26.166Z,60.90
2017-10-10T13:40:53.699Z,59.30
2017-10-10T13:43:21.265Z,60.10
2017-10-10T13:45:48.792Z,61.40
2017-10-10T13:48:16.475Z,61.40
2017-10-10T13:50:44.059Z,62.60
2017-10-10T13:53:11.592Z,62.50
2017-10-10T13:55:39.136Z,63.00
2017-10-10T13:58:06.701Z,63.40
2017-10-10T14:00:34.231Z,63.40
2017-10-10T14:03:01.771Z,62.70
2017-10-10T14:05:29.327Z,63.30
2017-10-10T14:07:56.872Z,63.40
2017-10-10T14:10:25.401Z,64.20
2017-10-10T14:12:53.181Z,63.80
2017-10-10T14:15:20.821Z,63.60
2017-10-10T14:17:48.372Z,64.50
2017-10-10T14:20:16.009Z,63.50
2017-10-10T14:22:43.571Z,62.70
2017-10-10T14:25:30.707Z,61.90
2017-10-10T14:27:58.616Z,61.80
2017-10-10T14:30:26.684Z,61.40
2017-10-10T14:32:54.235Z,61.90
2017-10-10T14:35:22.976Z,61.80
2017-10-10T14:37:50.523Z,60.50
2017-10-10T14:40:18.067Z,60.50
2017-10-10T14:42:45.623Z,61.10
2017-10-10T14:45:24.842Z,61.10
2017-10-10T14:50:42.236Z,61.60
2017-10-10T14:53:09.774Z,61.80
2017-10-10T14:55:37.349Z,61.60
2017-10-10T14:58:07.197Z,62.40
2017-10-10T15:00:36.189Z,63.20
2017-10-10T15:03:04.493Z,63.10
2017-10-10T15:05:32.063Z,62.40
2017-10-10T15:07:59.605Z,62.70
2017-10-10T15:10:27.135Z,62.50
2017-10-10T15:12:55.259Z,63.20
2017-10-10T15:15:22.786Z,63.20
2017-10-10T15:17:50.320Z,62.60
2017-10-10T15:20:18.651Z,63.10
2017-10-10T15:22:46.184Z,63.10
2017-10-10T15:25:15.532Z,62.80
2017-10-10T15:27:43.097Z,62.60
2017-10-10T15:30:10.634Z,63.10
2017-10-10T15:32:39.327Z,63.70
2017-10-10T15:35:06.921Z,63.50
2017-10-10T15:37:34.455Z,63.90
2017-10-10T15:40:01.984Z,63.80
2017-10-10T15:42:29.543Z,64.30
2017-10-10T15:44:57.071Z,64.40
2017-10-10T15:47:24.595Z,64.80
2017-10-10T15:49:52.176Z,65.00
2017-10-10T15:52:19.704Z,64.40
2017-10-10T15:54:48.162Z,65.10
2017-10-10T15:57:17.629Z,65.50
2017-10-10T15:59:45.265Z,65.80
2017-10-10T16:02:12.868Z,65.50
2017-10-10T16:04:40.439Z,65.90
2017-10-10T16:07:07.972Z,66.40
2017-10-10T16:09:36.307Z,67.10
2017-10-10T16:12:03.880Z,67.00
2017-10-10T16:14:31.407Z,67.50
2017-10-10T16:16:58.967Z,67.60
2017-10-10T16:19:26.547Z,68.00
2017-10-10T16:21:54.251Z,68.20
2017-10-10T16:24:22.578Z,69.00
2017-10-10T16:26:50.916Z,69.10
2017-10-10T16:29:18.523Z,69.10
2017-10-10T16:31:46.221Z,69.60
2017-10-10T16:34:16.697Z,69.80
2017-10-10T16:36:44.240Z,69.80
2017-10-10T16:39:11.779Z,70.40
2017-10-10T16:41:40.124Z,73.50
2017-10-10T16:44:07.664Z,73.50
2017-10-10T16:46:35.209Z,74.80
2017-10-10T16:49:02.792Z,75.00
2017-10-10T16:51:30.328Z,75.40
2017-10-10T16:53:58.024Z,74.70
2017-10-10T16:56:25.596Z,75.60
2017-10-10T16:58:53.168Z,76.70
2017-10-10T17:01:20.731Z,76.70
2017-10-10T17:03:48.456Z,77.00
2017-10-10T17:06:17.219Z,77.60
2017-10-10T17:08:44.759Z,77.50
2017-10-10T17:11:14.012Z,77.40
2017-10-10T17:13:41.707Z,77.30
2017-10-10T17:16:09.239Z,78.20
2017-10-10T17:18:36.836Z,77.80
2017-10-10T17:21:05.335Z,78.40
2017-10-10T17:23:32.990Z,78.40
2017-10-10T17:26:01.355Z,78.40
2017-10-10T17:28:29.684Z,77.90
2017-10-10T17:30:57.992Z,77.60
2017-10-10T17:33:25.572Z,77.60
2017-10-10T17:35:54.154Z,77.20
2017-10-10T17:38:21.734Z,77.10
2017-10-10T17:40:49.345Z,77.70
2017-10-10T17:43:16.898Z,77.70
2017-10-10T17:45:44.434Z,77.60
2017-10-10T17:48:12.080Z,77.60
2017-10-10T17:50:39.650Z,77.70
2017-10-10T17:53:07.201Z,77.50
2017-10-10T17:55:34.779Z,77.60
2017-10-10T17:58:03.228Z,77.30
2017-10-10T18:00:31.538Z,78.40
2017-10-10T18:02:59.137Z,78.40
2017-10-10T18:05:26.685Z,78.50
2017-10-10T18:07:54.335Z,78.50
2017-10-10T18:10:22.107Z,77.90
2017-10-10T18:12:49.652Z,78.40
2017-10-10T18:15:17.288Z,78.20
2017-10-10T18:17:44.860Z,78.50
2017-10-10T18:20:12.400Z,78.40
2017-10-10T18:22:39.940Z,78.40
2017-10-10T18:25:07.500Z,78.80
2017-10-10T18:27:35.035Z,78.60
2017-10-10T18:30:02.587Z,79.30
2017-10-10T18:32:30.208Z,79.30
2017-10-10T18:34:57.751Z,80.40
2017-10-10T18:37:25.304Z,80.20
2017-10-10T18:39:53.636Z,80.20
2017-10-10T18:42:21.222Z,80.00
2017-10-10T18:44:48.755Z,80.60
2017-10-10T18:47:16.436Z,80.40
2017-10-10T18:49:43.977Z,80.10
2017-10-10T18:52:11.515Z,80.50
2017-10-10T18:54:40.287Z,80.30
2017-10-10T18:57:08.021Z,80.30
2017-10-10T18:59:35.703Z,80.50
2017-10-10T19:02:04.050Z,80.60
2017-10-10T19:04:31.640Z,80.50
2017-10-10T19:07:00.077Z,81.20
2017-10-10T19:09:27.646Z,81.10
2017-10-10T19:11:55.175Z,80.80
2017-10-10T19:14:22.703Z,81.20
2017-10-10T19:16:51.235Z,80.80
2017-10-10T19:19:18.828Z,80.80
2017-10-10T19:21:46.354Z,81.10
2017-10-10T19:24:25.445Z,81.60
2017-10-10T19:29:57.592Z,81.80
2017-10-10T19:32:25.191Z,83.00
2017-10-10T19:34:52.730Z,82.70
2017-10-10T19:37:21.151Z,83.20
2017-10-10T19:39:49.129Z,82.70
2017-10-10T19:42:16.740Z,82.40
2017-10-10T19:44:44.359Z,82.60
2017-10-10T19:47:11.964Z,82.60
2017-10-10T19:49:39.495Z,83.00
2017-10-10T19:52:07.052Z,83.10
2017-10-10T19:54:34.604Z,82.90
2017-10-10T19:57:02.260Z,83.00
2017-10-10T19:59:29.911Z,83.00
2017-10-10T20:01:57.503Z,83.20
2017-10-10T20:04:25.052Z,83.60
2017-10-10T20:06:52.611Z,84.00
2017-10-10T20:09:20.203Z,84.00
2017-10-10T20:11:48.576Z,84.40
2017-10-10T20:14:17.283Z,84.60
2017-10-10T20:16:45.643Z,84.70
2017-10-10T20:19:32.427Z,84.60
2017-10-10T20:25:17.167Z,85.40
2017-10-10T20:27:44.699Z,85.90
2017-10-10T20:30:12.283Z,86.20
2017-10-10T20:32:39.856Z,86.40
2017-10-10T20:35:07.391Z,86.40
2017-10-10T20:37:35.691Z,86.20
2017-10-10T20:40:03.704Z,86.20
2017-10-10T20:42:31.301Z,86.20
2017-10-10T20:44:59.642Z,86.30
2017-10-10T20:47:27.244Z,86.40
2017-10-10T20:49:54.976Z,86.60
2017-10-10T20:52:22.602Z,86.30
2017-10-10T20:54:50.995Z,86.40
2017-10-10T20:57:18.532Z,86.50
2017-10-10T20:59:46.079Z,86.40
2017-10-10T21:02:24.572Z,86.30
2017-10-10T21:07:46.152Z,85.70
2017-10-10T21:10:25.924Z,86.60
2017-10-10T21:17:57.330Z,86.80
2017-10-10T21:20:24.860Z,87.20
2017-10-10T21:22:52.479Z,87.70
2017-10-10T21:25:20.119Z,87.30
2017-10-10T21:27:47.690Z,87.00
2017-10-10T21:30:16.476Z,86.10
2017-10-10T21:32:44.815Z,85.50
2017-10-10T21:35:12.446Z,85.50
2017-10-10T21:37:40.001Z,85.20
2017-10-10T21:40:07.980Z,84.80
2017-10-10T21:42:35.650Z,84.20
2017-10-10T21:45:03.223Z,84.20
2017-10-10T21:47:30.799Z,83.80
2017-10-10T21:49:58.335Z,83.90
2017-10-10T21:52:25.981Z,83.80
2017-10-10T21:54:53.548Z,83.90
2017-10-10T21:57:21.110Z,83.70
2017-10-10T21:59:48.708Z,83.70
2017-10-10T22:02:17.295Z,83.60
2017-10-10T22:04:44.855Z,83.60
2017-10-10T22:07:12.387Z,84.00
2017-10-10T22:09:40.060Z,84.20
2017-10-10T22:12:07.715Z,84.50
2017-10-10T22:14:35.264Z,84.40
2017-10-10T22:17:02.871Z,84.50
2017-10-10T22:19:30.532Z,84.60
2017-10-10T22:21:58.071Z,84.90
2017-10-10T22:24:26.440Z,84.90
2017-10-10T22:26:53.988Z,84.50
2017-10-10T22:29:21.637Z,84.60
2017-10-10T22:31:49.223Z,84.40
2017-10-10T22:34:16.819Z,84.70
2017-10-10T22:36:44.375Z,84.80
2017-10-10T22:39:11.960Z,84.80
2017-10-10T22:41:40.018Z,84.70
2017-10-10T22:44:08.307Z,84.80
2017-10-10T22:46:35.975Z,84.70
2017-10-10T22:49:03.600Z,84.70
2017-10-10T22:51:31.280Z,84.80
2017-10-10T22:53:59.612Z,84.50
2017-10-10T22:56:27.139Z,84.50
2017-10-10T22:58:54.730Z,84.40
2017-10-10T23:01:22.342Z,84.30
2017-10-10T23:03:50.667Z,84.30
2017-10-10T23:06:18.195Z,84.20
2017-10-10T23:08:45.775Z,84.10
2017-10-10T23:11:30.520Z,84.30
2017-10-10T23:26:17.066Z,85.40
2017-10-10T23:28:45.467Z,85.50
2017-10-10T23:31:25.456Z,85.10
2017-10-10T23:42:08.899Z,85.10
2017-10-10T23:44:36.431Z,85.50
2017-10-10T23:47:03.988Z,85.50
2017-10-10T23:49:31.739Z,85.30
2017-10-10T23:52:00.040Z,84.70
2017-10-10T23:54:27.595Z,84.70
2017-10-10T23:56:55.151Z,84.20
2017-10-10T23:59:22.716Z,84.00
